Etusivu
METAR-TAF:

METAR-TAF

Lentoasemat :

Nouakchottin kansainvälinen lentoasema

Nouakchott, Mauritania

Leveyspiiri: 18-18-36N, Pituuspiiri: 015-58-11W, korkeus merenpinnasta: 3 m

Tämänhetkinen sää

Tämä raportti tehtiin 1 tunti ja 25 minuuttia sitten, kello 03.30 UTC
Tuuli 9 kn pohjoisesta
Lämpötila 20°C
Kosteus 60%
Ilmanpaine 1018 hPa
Näkyvyys 10 km tai enemmän
ei pilviä alle 1500 m:ssä eikä cumulonimbus-pilviä

METAR: GQNO 160330Z 36009KT CAVOK 20/12 Q1018 NOSIG

Aika: 04:55 (04:55 UTC)

Sääennuste

Tämä raportti tehtiin 5 tuntia ja 55 minuuttia sitten, kello 23.00 UTC
Ennuste voimassa 16. päivästä klo 00 UTC - 17. päivään klo 06 UTC
Tuuli 4 kn pohjoisesta
Näkyvyys: 8000 m
Tulossa
16. päivästä klo 09 UTC - 16. päivään klo 12 UTC
Tuuli 6 kn idästä/koillisesta
Tulossa
16. päivästä klo 19 UTC - 16. päivään klo 21 UTC
Tuuli 6 kn pohjoisesta

TAF: GQNO 152300Z 1600/1706 36004KT 8000 NSC BECMG 1609/1612 06006KT BECMG 1619/1621 35006KT

Säähavainnot ja -ennusteet yli 4000 lentoasemalta (METAR- ja TAF-raportit).

Käytössä olevat sääasemat on merkitty karttaan keltaisilla ja punaisilla pisteillä.

Aseta hiiri pisteen päälle nähdäksesi sääaseman nimen.

Klikkaa sitten nähdäksesi säähavainnot ja -ennusteet.

Kartan vaihtaminen: klikkaa mustalla rastilla varustettuja vihreitä pisteitä, niin voit zoomata sisään; viivalla varustettua vihreää pistettä, niin voit zoomata ulos tai vihreitä nuolia, niin pääset viereisille kartoille.


METAR-TAF: